sensor_id;sensor_type;location;lat;lon;timestamp;pressure;altitude;pressure_sealevel;temperature;humidity
44934;BME280;30667;43.614;1.442;2023-03-12T00:02:25;100212.97;;;13.02;100.00
44934;BME280;30667;43.614;1.442;2023-03-12T00:04:50;100223.00;;;13.02;100.00
44934;BME280;30667;43.614;1.442;2023-03-12T00:07:16;100221.13;;;13.02;100.00
44934;BME280;30667;43.614;1.442;2023-03-12T00:09:41;100220.63;;;13.00;100.00
44934;BME280;30667;43.614;1.442;2023-03-12T00:12:07;100217.59;;;13.02;100.00
44934;BME280;30667;43.614;1.442;2023-03-12T00:14:32;100216.78;;;13.01;100.00
44934;BME280;30667;43.614;1.442;2023-03-12T00:16:58;100204.84;;;13.02;100.00
44934;BME280;30667;43.614;1.442;2023-03-12T00:19:23;100199.69;;;13.01;100.00
44934;BME280;30667;43.614;1.442;2023-03-12T00:21:49;100203.19;;;13.01;100.00
44934;BME280;30667;43.614;1.442;2023-03-12T00:24:14;100209.75;;;13.00;100.00
44934;BME280;30667;43.614;1.442;2023-03-12T00:26:40;100204.31;;;13.00;100.00
44934;BME280;30667;43.614;1.442;2023-03-12T00:29:06;100207.53;;;13.02;100.00
44934;BME280;30667;43.614;1.442;2023-03-12T00:31:32;100203.19;;;13.01;100.00
44934;BME280;30667;43.614;1.442;2023-03-12T00:33:59;100211.34;;;13.01;100.00
44934;BME280;30667;43.614;1.442;2023-03-12T00:36:27;100207.03;;;13.00;100.00
44934;BME280;30667;43.614;1.442;2023-03-12T00:38:54;100203.72;;;13.03;100.00
44934;BME280;30667;43.614;1.442;2023-03-12T00:41:20;100202.91;;;13.03;100.00
44934;BME280;30667;43.614;1.442;2023-03-12T00:43:47;100204.25;;;13.05;100.00
44934;BME280;30667;43.614;1.442;2023-03-12T00:46:12;100213.78;;;13.03;100.00
44934;BME280;30667;43.614;1.442;2023-03-12T00:48:38;100215.69;;;13.02;100.00
44934;BME280;30667;43.614;1.442;2023-03-12T00:51:05;100226.28;;;13.04;100.00
44934;BME280;30667;43.614;1.442;2023-03-12T00:53:30;100224.63;;;13.03;100.00
44934;BME280;30667;43.614;1.442;2023-03-12T00:55:56;100223.56;;;13.04;100.00
44934;BME280;30667;43.614;1.442;2023-03-12T00:58:21;100217.84;;;13.05;100.00
44934;BME280;30667;43.614;1.442;2023-03-12T01:00:46;100218.91;;;13.04;100.00
44934;BME280;30667;43.614;1.442;2023-03-12T01:03:12;100224.63;;;13.03;100.00
44934;BME280;30667;43.614;1.442;2023-03-12T01:05:38;100226.28;;;13.04;100.00
44934;BME280;30667;43.614;1.442;2023-03-12T01:08:06;100236.03;;;13.05;100.00
44934;BME280;30667;43.614;1.442;2023-03-12T01:10:32;100231.69;;;13.04;100.00
44934;BME280;30667;43.614;1.442;2023-03-12T01:12:58;100231.16;;;13.02;100.00
44934;BME280;30667;43.614;1.442;2023-03-12T01:15:24;100232.28;;;13.01;100.00
44934;BME280;30667;43.614;1.442;2023-03-12T01:17:49;100236.59;;;13.02;100.00
44934;BME280;30667;43.614;1.442;2023-03-12T01:20:15;100233.38;;;13.00;100.00
44934;BME280;30667;43.614;1.442;2023-03-12T01:22:41;100238.22;;;13.03;100.00
44934;BME280;30667;43.614;1.442;2023-03-12T01:25:06;100233.66;;;12.98;100.00
44934;BME280;30667;43.614;1.442;2023-03-12T01:27:32;100245.06;;;13.00;100.00
44934;BME280;30667;43.614;1.442;2023-03-12T01:29:57;100243.13;;;13.01;100.00
44934;BME280;30667;43.614;1.442;2023-03-12T01:32:23;100242.34;;;13.00;100.00
44934;BME280;30667;43.614;1.442;2023-03-12T01:34:48;100241.22;;;13.01;100.00
44934;BME280;30667;43.614;1.442;2023-03-12T01:37:14;100242.03;;;13.02;100.00
44934;BME280;30667;43.614;1.442;2023-03-12T01:39:39;100239.63;;;13.00;100.00
44934;BME280;30667;43.614;1.442;2023-03-12T01:42:05;100241.50;;;13.00;100.00
44934;BME280;30667;43.614;1.442;2023-03-12T01:44:50;100236.38;;;12.98;100.00
44934;BME280;30667;43.614;1.442;2023-03-12T01:47:16;100236.38;;;12.98;100.00
44934;BME280;30667;43.614;1.442;2023-03-12T01:49:42;100234.78;;;12.97;100.00
44934;BME280;30667;43.614;1.442;2023-03-12T01:52:11;100226.34;;;12.99;100.00
44934;BME280;30667;43.614;1.442;2023-03-12T01:54:40;100232.34;;;12.96;100.00
44934;BME280;30667;43.614;1.442;2023-03-12T01:57:23;100230.94;;;12.98;100.00
44934;BME280;30667;43.614;1.442;2023-03-12T01:59:55;100239.16;;;12.93;100.00
44934;BME280;30667;43.614;1.442;2023-03-12T02:02:23;100235.09;;;12.90;100.00
44934;BME280;30667;43.614;1.442;2023-03-12T02:04:59;100237.50;;;12.92;100.00
44934;BME280;30667;43.614;1.442;2023-03-12T02:07:28;100238.63;;;12.91;100.00
44934;BME280;30667;43.614;1.442;2023-03-12T02:09:53;100242.94;;;12.92;100.00
44934;BME280;30667;43.614;1.442;2023-03-12T02:12:19;100244.88;;;12.92;100.00
44934;BME280;30667;43.614;1.442;2023-03-12T02:14:44;100241.63;;;12.89;100.00
44934;BME280;30667;43.614;1.442;2023-03-12T02:17:10;100246.22;;;12.89;100.00
44934;BME280;30667;43.614;1.442;2023-03-12T02:22:22;100240.28;;;12.87;100.00
44934;BME280;30667;43.614;1.442;2023-03-12T02:24:59;100241.38;;;12.86;100.00
44934;BME280;30667;43.614;1.442;2023-03-12T02:27:32;100238.91;;;12.89;100.00
44934;BME280;30667;43.614;1.442;2023-03-12T02:30:01;100231.63;;;12.85;100.00
44934;BME280;30667;43.614;1.442;2023-03-12T02:32:33;100237.84;;;12.85;100.00
44934;BME280;30667;43.614;1.442;2023-03-12T02:35:01;100242.50;;;12.85;100.00
44934;BME280;30667;43.614;1.442;2023-03-12T02:37:27;100240.56;;;12.85;100.00
44934;BME280;30667;43.614;1.442;2023-03-12T02:40:06;100247.91;;;12.85;100.00
44934;BME280;30667;43.614;1.442;2023-03-12T02:42:36;100247.13;;;12.84;100.00
44934;BME280;30667;43.614;1.442;2023-03-12T02:45:02;100251.22;;;12.82;100.00
44934;BME280;30667;43.614;1.442;2023-03-12T02:47:27;100257.72;;;12.81;100.00
44934;BME280;30667;43.614;1.442;2023-03-12T02:49:53;100256.63;;;12.82;100.00
44934;BME280;30667;43.614;1.442;2023-03-12T02:52:18;100240.91;;;12.79;100.00
44934;BME280;30667;43.614;1.442;2023-03-12T02:54:44;100243.06;;;12.82;100.00
44934;BME280;30667;43.614;1.442;2023-03-12T02:57:09;100243.88;;;12.82;100.00
44934;BME280;30667;43.614;1.442;2023-03-12T02:59:34;100238.16;;;12.84;100.00
44934;BME280;30667;43.614;1.442;2023-03-12T03:02:00;100239.78;;;12.85;100.00
44934;BME280;30667;43.614;1.442;2023-03-12T03:04:27;100237.06;;;12.85;100.00
44934;BME280;30667;43.614;1.442;2023-03-12T03:06:53;100238.66;;;12.86;100.00
44934;BME280;30667;43.614;1.442;2023-03-12T03:09:19;100235.94;;;12.86;100.00
44934;BME280;30667;43.614;1.442;2023-03-12T03:11:47;100234.34;;;12.85;100.00
44934;BME280;30667;43.614;1.442;2023-03-12T03:14:12;100238.16;;;12.84;100.00
44934;BME280;30667;43.614;1.442;2023-03-12T03:16:37;100243.88;;;12.82;100.00
44934;BME280;30667;43.614;1.442;2023-03-12T03:19:03;100250.94;;;12.83;100.00
44934;BME280;30667;43.614;1.442;2023-03-12T03:21:29;100248.50;;;12.82;100.00
44934;BME280;30667;43.614;1.442;2023-03-12T03:23:55;100247.69;;;12.81;100.00
44934;BME280;30667;43.614;1.442;2023-03-12T03:26:21;100259.34;;;12.82;100.00
44934;BME280;30667;43.614;1.442;2023-03-12T03:28:48;100258.84;;;12.80;100.00
44934;BME280;30667;43.614;1.442;2023-03-12T03:31:14;100267.00;;;12.80;100.00
44934;BME280;30667;43.614;1.442;2023-03-12T03:33:40;100260.72;;;12.79;100.00
44934;BME280;30667;43.614;1.442;2023-03-12T03:36:07;100266.16;;;12.79;100.00
44934;BME280;30667;43.614;1.442;2023-03-12T03:38:33;100264.28;;;12.80;100.00
44934;BME280;30667;43.614;1.442;2023-03-12T03:41:01;100257.72;;;12.81;100.00
44934;BME280;30667;43.614;1.442;2023-03-12T03:43:27;100261.84;;;12.78;100.00
44934;BME280;30667;43.614;1.442;2023-03-12T03:45:57;100264.56;;;12.78;100.00
44934;BME280;30667;43.614;1.442;2023-03-12T03:48:22;100279.44;;;12.81;100.00
44934;BME280;30667;43.614;1.442;2023-03-12T03:50:47;100273.78;;;12.77;100.00
44934;BME280;30667;43.614;1.442;2023-03-12T03:53:13;100279.50;;;12.76;100.00
44934;BME280;30667;43.614;1.442;2023-03-12T03:55:39;100288.72;;;12.75;100.00
44934;BME280;30667;43.614;1.442;2023-03-12T03:58:05;100288.88;;;12.59;100.00
44934;BME280;30667;43.614;1.442;2023-03-12T04:00:30;100284.09;;;12.46;100.00
44934;BME280;30667;43.614;1.442;2023-03-12T04:02:56;100298.31;;;12.32;100.00
44934;BME280;30667;43.614;1.442;2023-03-12T04:05:22;100298.09;;;12.24;100.00
44934;BME280;30667;43.614;1.442;2023-03-12T04:07:48;100294.88;;;12.16;100.00
44934;BME280;30667;43.614;1.442;2023-03-12T04:10:13;100301.16;;;12.12;100.00
44934;BME280;30667;43.614;1.442;2023-03-12T04:12:39;100300.59;;;12.15;100.00
44934;BME280;30667;43.614;1.442;2023-03-12T04:15:05;100306.34;;;12.08;100.00
44934;BME280;30667;43.614;1.442;2023-03-12T04:17:30;100320.97;;;12.07;100.00
44934;BME280;30667;43.614;1.442;2023-03-12T04:19:56;100322.09;;;12.06;100.00
44934;BME280;30667;43.614;1.442;2023-03-12T04:22:21;100330.22;;;12.01;100.00
44934;BME280;30667;43.614;1.442;2023-03-12T04:24:47;100325.63;;;11.96;100.00
44934;BME280;30667;43.614;1.442;2023-03-12T04:27:12;100330.00;;;11.92;100.00
44934;BME280;30667;43.614;1.442;2023-03-12T04:29:37;100328.91;;;11.88;100.00
44934;BME280;30667;43.614;1.442;2023-03-12T04:32:05;100323.22;;;11.90;100.00
44934;BME280;30667;43.614;1.442;2023-03-12T04:34:31;100330.81;;;11.88;100.00
44934;BME280;30667;43.614;1.442;2023-03-12T04:36:56;100332.72;;;11.87;100.00
44934;BME280;30667;43.614;1.442;2023-03-12T04:39:22;100328.94;;;11.83;100.00
44934;BME280;30667;43.614;1.442;2023-03-12T04:41:47;100324.03;;;11.85;100.00
44934;BME280;30667;43.614;1.442;2023-03-12T04:44:13;100328.66;;;11.85;100.00
44934;BME280;30667;43.614;1.442;2023-03-12T04:46:40;100338.72;;;11.84;100.00
44934;BME280;30667;43.614;1.442;2023-03-12T04:49:05;100331.63;;;11.88;100.00
44934;BME280;30667;43.614;1.442;2023-03-12T04:51:31;100343.03;;;11.85;100.00
44934;BME280;30667;43.614;1.442;2023-03-12T04:53:57;100337.59;;;11.85;100.00
44934;BME280;30667;43.614;1.442;2023-03-12T04:56:22;100336.75;;;11.90;100.00
44934;BME280;30667;43.614;1.442;2023-03-12T04:58:49;100342.78;;;11.81;100.00
44934;BME280;30667;43.614;1.442;2023-03-12T05:01:29;100355.50;;;11.86;100.00
44934;BME280;30667;43.614;1.442;2023-03-12T05:03:55;100344.66;;;11.86;100.00
44934;BME280;30667;43.614;1.442;2023-03-12T05:06:22;100353.88;;;11.85;100.00
44934;BME280;30667;43.614;1.442;2023-03-12T05:08:48;100351.16;;;11.85;100.00
44934;BME280;30667;43.614;1.442;2023-03-12T05:11:14;100349.28;;;11.86;100.00
44934;BME280;30667;43.614;1.442;2023-03-12T05:13:40;100355.50;;;11.86;100.00
44934;BME280;30667;43.614;1.442;2023-03-12T05:16:05;100364.44;;;11.87;100.00
44934;BME280;30667;43.614;1.442;2023-03-12T05:18:31;100369.06;;;11.86;100.00
44934;BME280;30667;43.614;1.442;2023-03-12T05:21:18;100374.47;;;11.86;100.00
44934;BME280;30667;43.614;1.442;2023-03-12T05:23:44;100367.13;;;11.87;100.00
44934;BME280;30667;43.614;1.442;2023-03-12T05:26:18;100364.72;;;11.80;100.00
44934;BME280;30667;43.614;1.442;2023-03-12T05:28:44;100372.34;;;11.78;100.00
44934;BME280;30667;43.614;1.442;2023-03-12T05:31:10;100373.41;;;11.82;100.00
44934;BME280;30667;43.614;1.442;2023-03-12T05:33:36;100378.84;;;11.77;100.00
44934;BME280;30667;43.614;1.442;2023-03-12T05:36:01;100370.72;;;11.77;100.00
44934;BME280;30667;43.614;1.442;2023-03-12T05:38:27;100373.69;;;11.75;100.00
44934;BME280;30667;43.614;1.442;2023-03-12T05:40:54;100363.38;;;11.77;100.00
44934;BME280;30667;43.614;1.442;2023-03-12T05:43:21;100373.13;;;11.84;100.00
44934;BME280;30667;43.614;1.442;2023-03-12T05:45:46;100379.38;;;11.84;100.00
44934;BME280;30667;43.614;1.442;2023-03-12T05:48:12;100382.91;;;11.79;100.00
44934;BME280;30667;43.614;1.442;2023-03-12T05:50:38;100372.63;;;11.76;100.00
44934;BME280;30667;43.614;1.442;2023-03-12T05:53:03;100369.38;;;11.74;100.00
44934;BME280;30667;43.614;1.442;2023-03-12T05:55:28;100377.75;;;11.78;100.00
44934;BME280;30667;43.614;1.442;2023-03-12T05:57:54;100381.25;;;11.84;100.00
44934;BME280;30667;43.614;1.442;2023-03-12T06:00:20;100387.50;;;11.84;100.00
44934;BME280;30667;43.614;1.442;2023-03-12T06:02:45;100387.78;;;11.82;100.00
44934;BME280;30667;43.614;1.442;2023-03-12T06:05:11;100391.81;;;11.85;100.00
44934;BME280;30667;43.614;1.442;2023-03-12T06:07:37;100394.56;;;11.80;100.00
44934;BME280;30667;43.614;1.442;2023-03-12T06:10:03;100388.59;;;11.78;100.00
44934;BME280;30667;43.614;1.442;2023-03-12T06:12:28;100387.50;;;11.79;100.00
44934;BME280;30667;43.614;1.442;2023-03-12T06:14:54;100382.34;;;11.77;100.00
44934;BME280;30667;43.614;1.442;2023-03-12T06:17:21;100391.31;;;11.78;100.00
44934;BME280;30667;43.614;1.442;2023-03-12T06:19:49;100394.00;;;11.83;100.00
44934;BME280;30667;43.614;1.442;2023-03-12T06:22:15;100389.69;;;11.77;100.00
44934;BME280;30667;43.614;1.442;2023-03-12T06:24:41;100383.22;;;11.73;100.00
44934;BME280;30667;43.614;1.442;2023-03-12T06:27:06;100390.81;;;11.66;100.00
44934;BME280;30667;43.614;1.442;2023-03-12T06:29:32;100396.19;;;11.71;100.00
44934;BME280;30667;43.614;1.442;2023-03-12T06:31:57;100385.38;;;11.71;100.00
44934;BME280;30667;43.614;1.442;2023-03-12T06:34:22;100382.94;;;11.74;100.00
44934;BME280;30667;43.614;1.442;2023-03-12T06:36:48;100386.44;;;11.75;100.00
44934;BME280;30667;43.614;1.442;2023-03-12T06:39:13;100382.66;;;11.76;100.00
44934;BME280;30667;43.614;1.442;2023-03-12T06:41:39;100390.78;;;11.76;100.00
44934;BME280;30667;43.614;1.442;2023-03-12T06:44:05;100393.19;;;11.77;100.00
44934;BME280;30667;43.614;1.442;2023-03-12T06:46:31;100400.78;;;11.80;100.00
44934;BME280;30667;43.614;1.442;2023-03-12T06:48:56;100407.31;;;11.79;100.00
44934;BME280;30667;43.614;1.442;2023-03-12T06:51:22;100402.44;;;11.76;100.00
44934;BME280;30667;43.614;1.442;2023-03-12T06:53:48;100404.59;;;11.69;100.00
44934;BME280;30667;43.614;1.442;2023-03-12T06:56:13;100411.66;;;11.75;100.00
44934;BME280;30667;43.614;1.442;2023-03-12T06:58:40;100403.22;;;11.82;100.00
44934;BME280;30667;43.614;1.442;2023-03-12T07:01:06;100409.47;;;11.82;100.00
44934;BME280;30667;43.614;1.442;2023-03-12T07:03:31;100403.50;;;11.80;100.00
44934;BME280;30667;43.614;1.442;2023-03-12T07:05:57;100416.78;;;11.87;100.00
44934;BME280;30667;43.614;1.442;2023-03-12T07:08:24;100414.88;;;11.93;100.00
44934;BME280;30667;43.614;1.442;2023-03-12T07:10:50;100412.97;;;11.93;100.00
44934;BME280;30667;43.614;1.442;2023-03-12T07:13:15;100408.91;;;11.91;100.00
44934;BME280;30667;43.614;1.442;2023-03-12T07:15:40;100410.25;;;11.88;100.00
44934;BME280;30667;43.614;1.442;2023-03-12T07:18:07;100417.88;;;11.81;100.00
44934;BME280;30667;43.614;1.442;2023-03-12T07:20:38;100410.53;;;11.81;100.00
44934;BME280;30667;43.614;1.442;2023-03-12T07:23:04;100418.41;;;11.83;100.00
44934;BME280;30667;43.614;1.442;2023-03-12T07:25:29;100417.59;;;11.82;100.00
44934;BME280;30667;43.614;1.442;2023-03-12T07:27:55;100407.84;;;11.92;100.00
44934;BME280;30667;43.614;1.442;2023-03-12T07:30:20;100404.03;;;11.88;100.00
44934;BME280;30667;43.614;1.442;2023-03-12T07:32:46;100410.25;;;11.93;100.00
44934;BME280;30667;43.614;1.442;2023-03-12T07:35:19;100415.69;;;11.98;100.00
44934;BME280;30667;43.614;1.442;2023-03-12T07:37:45;100408.88;;;12.01;100.00
44934;BME280;30667;43.614;1.442;2023-03-12T07:40:10;100410.78;;;12.01;100.00
44934;BME280;30667;43.614;1.442;2023-03-12T07:42:36;100412.13;;;12.08;100.00
44934;BME280;30667;43.614;1.442;2023-03-12T07:45:01;100411.59;;;12.01;100.00
44934;BME280;30667;43.614;1.442;2023-03-12T07:47:28;100417.28;;;11.99;100.00
44934;BME280;30667;43.614;1.442;2023-03-12T07:49:53;100416.72;;;12.03;100.00
44934;BME280;30667;43.614;1.442;2023-03-12T07:52:19;100416.19;;;12.06;100.00
44934;BME280;30667;43.614;1.442;2023-03-12T07:54:45;100415.09;;;12.07;100.00
44934;BME280;30667;43.614;1.442;2023-03-12T07:57:10;100414.81;;;12.08;100.00
44934;BME280;30667;43.614;1.442;2023-03-12T07:59:35;100422.13;;;12.13;100.00
44934;BME280;30667;43.614;1.442;2023-03-12T08:02:01;100414.53;;;12.10;100.00
44934;BME280;30667;43.614;1.442;2023-03-12T08:04:26;100405.56;;;12.09;100.00
44934;BME280;30667;43.614;1.442;2023-03-12T08:06:52;100411.53;;;12.16;100.00
44934;BME280;30667;43.614;1.442;2023-03-12T08:09:17;100409.34;;;12.18;100.00
44934;BME280;30667;43.614;1.442;2023-03-12T08:11:43;100417.44;;;12.24;100.00
44934;BME280;30667;43.614;1.442;2023-03-12T08:14:08;100409.88;;;12.26;100.00
44934;BME280;30667;43.614;1.442;2023-03-12T08:16:34;100418.22;;;12.34;100.00
44934;BME280;30667;43.614;1.442;2023-03-12T08:18:59;100419.56;;;12.37;100.00
44934;BME280;30667;43.614;1.442;2023-03-12T08:21:25;100422.03;;;12.33;100.00
44934;BME280;30667;43.614;1.442;2023-03-12T08:23:50;100407.09;;;12.36;100.00
44934;BME280;30667;43.614;1.442;2023-03-12T08:26:15;100408.41;;;12.44;100.00
44934;BME280;30667;43.614;1.442;2023-03-12T08:28:41;100413.88;;;12.39;100.00
44934;BME280;30667;43.614;1.442;2023-03-12T08:31:07;100416.53;;;12.44;100.00
44934;BME280;30667;43.614;1.442;2023-03-12T08:33:33;100414.63;;;12.44;100.00
44934;BME280;30667;43.614;1.442;2023-03-12T08:35:59;100400.53;;;12.42;100.00
44934;BME280;30667;43.614;1.442;2023-03-12T08:38:24;100397.28;;;12.45;100.00
44934;BME280;30667;43.614;1.442;2023-03-12T08:40:56;100398.34;;;12.49;100.00
44934;BME280;30667;43.614;1.442;2023-03-12T08:43:23;100408.34;;;12.54;100.00
44934;BME280;30667;43.614;1.442;2023-03-12T08:45:56;100414.28;;;12.61;100.00
44934;BME280;30667;43.614;1.442;2023-03-12T08:48:21;100411.03;;;12.59;100.00
44934;BME280;30667;43.614;1.442;2023-03-12T08:50:47;100414.53;;;12.60;100.00
44934;BME280;30667;43.614;1.442;2023-03-12T08:53:12;100421.53;;;12.71;100.00
44934;BME280;30667;43.614;1.442;2023-03-12T08:55:38;100416.38;;;12.69;100.00
44934;BME280;30667;43.614;1.442;2023-03-12T08:58:03;100410.34;;;12.78;100.00
44934;BME280;30667;43.614;1.442;2023-03-12T09:00:28;100412.44;;;12.86;100.00
44934;BME280;30667;43.614;1.442;2023-03-12T09:02:54;100414.13;;;12.82;100.00
44934;BME280;30667;43.614;1.442;2023-03-12T09:05:25;100406.75;;;12.87;100.00
44934;BME280;30667;43.614;1.442;2023-03-12T09:07:52;100412.97;;;12.93;100.00
44934;BME280;30667;43.614;1.442;2023-03-12T09:10:17;100411.88;;;12.94;100.00
44934;BME280;30667;43.614;1.442;2023-03-12T09:12:43;100418.56;;;13.02;100.00
44934;BME280;30667;43.614;1.442;2023-03-12T09:15:09;100416.66;;;13.07;100.00
44934;BME280;30667;43.614;1.442;2023-03-12T09:17:35;100430.50;;;13.06;100.00
44934;BME280;30667;43.614;1.442;2023-03-12T09:20:01;100421.75;;;13.14;100.00
44934;BME280;30667;43.614;1.442;2023-03-12T09:22:31;100425.81;;;13.17;100.00
44934;BME280;30667;43.614;1.442;2023-03-12T09:24:56;100419.31;;;13.13;100.00
44934;BME280;30667;43.614;1.442;2023-03-12T09:27:22;100416.53;;;13.18;100.00
44934;BME280;30667;43.614;1.442;2023-03-12T09:29:47;100422.28;;;13.16;100.00
44934;BME280;30667;43.614;1.442;2023-03-12T09:32:13;100426.66;;;13.12;100.00
44934;BME280;30667;43.614;1.442;2023-03-12T09:34:40;100422.81;;;13.18;100.00
44934;BME280;30667;43.614;1.442;2023-03-12T09:37:06;100411.94;;;13.18;100.00
44934;BME280;30667;43.614;1.442;2023-03-12T09:39:31;100423.03;;;13.22;100.00
44934;BME280;30667;43.614;1.442;2023-03-12T09:41:57;100421.63;;;13.30;100.00
44934;BME280;30667;43.614;1.442;2023-03-12T09:44:35;100424.63;;;13.28;100.00
44934;BME280;30667;43.614;1.442;2023-03-12T09:47:09;100417.91;;;13.20;100.00
44934;BME280;30667;43.614;1.442;2023-03-12T09:49:48;100423.63;;;13.19;100.00
44934;BME280;30667;43.614;1.442;2023-03-12T09:52:19;100421.91;;;13.28;100.00
44934;BME280;30667;43.614;1.442;2023-03-12T09:55:11;100431.66;;;13.34;100.00
44934;BME280;30667;43.614;1.442;2023-03-12T09:57:39;100430.25;;;13.42;100.00
44934;BME280;30667;43.614;1.442;2023-03-12T10:00:10;100433.94;;;13.51;100.00
44934;BME280;30667;43.614;1.442;2023-03-12T10:02:52;100418.47;;;13.52;100.00
44934;BME280;30667;43.614;1.442;2023-03-12T10:05:45;100417.81;;;13.60;100.00
44934;BME280;30667;43.614;1.442;2023-03-12T10:11:08;100416.31;;;13.73;100.00
44934;BME280;30667;43.614;1.442;2023-03-12T10:25:03;100416.69;;;13.90;100.00
44934;BME280;30667;43.614;1.442;2023-03-12T10:27:33;100418.59;;;13.90;100.00
44934;BME280;30667;43.614;1.442;2023-03-12T10:30:03;100416.50;;;14.06;100.00
44934;BME280;30667;43.614;1.442;2023-03-12T10:32:43;100413.50;;;14.07;100.00
44934;BME280;30667;43.614;1.442;2023-03-12T10:35:20;100413.50;;;14.07;100.00
44934;BME280;30667;43.614;1.442;2023-03-12T10:37:50;100418.03;;;14.12;100.00
44934;BME280;30667;43.614;1.442;2023-03-12T10:40:23;100407.75;;;14.09;100.00
44934;BME280;30667;43.614;1.442;2023-03-12T10:42:49;100410.13;;;14.15;100.00
44934;BME280;30667;43.614;1.442;2023-03-12T10:45:22;100410.41;;;14.14;100.00
44934;BME280;30667;43.614;1.442;2023-03-12T10:47:54;100410.16;;;14.10;100.00
44934;BME280;30667;43.614;1.442;2023-03-12T10:50:29;100412.09;;;14.10;100.00
44934;BME280;30667;43.614;1.442;2023-03-12T10:56:17;100399.53;;;14.14;100.00
44934;BME280;30667;43.614;1.442;2023-03-12T10:58:49;100397.31;;;14.16;100.00
44934;BME280;30667;43.614;1.442;2023-03-12T11:03:44;100383.06;;;14.43;100.00
44934;BME280;30667;43.614;1.442;2023-03-12T11:06:20;100385.56;;;14.59;100.00
44934;BME280;30667;43.614;1.442;2023-03-12T11:09:05;100386.84;;;14.66;100.00
44934;BME280;30667;43.614;1.442;2023-03-12T11:11:34;100385.44;;;14.69;100.00
44934;BME280;30667;43.614;1.442;2023-03-12T11:16:41;100387.03;;;14.89;100.00
44934;BME280;30667;43.614;1.442;2023-03-12T11:19:11;100376.00;;;14.80;100.00
44934;BME280;30667;43.614;1.442;2023-03-12T11:21:38;100383.16;;;14.76;100.00
44934;BME280;30667;43.614;1.442;2023-03-12T11:24:12;100381.06;;;14.87;100.00
44934;BME280;30667;43.614;1.442;2023-03-12T11:26:49;100372.59;;;14.88;100.00
44934;BME280;30667;43.614;1.442;2023-03-12T11:29:28;100379.44;;;14.86;100.00
44934;BME280;30667;43.614;1.442;2023-03-12T11:32:17;100382.59;;;14.93;100.00
44934;BME280;30667;43.614;1.442;2023-03-12T11:34:44;100382.28;;;14.95;100.00
44934;BME280;30667;43.614;1.442;2023-03-12T11:37:25;100370.28;;;14.96;100.00
44934;BME280;30667;43.614;1.442;2023-03-12T11:45:34;100374.31;;;15.17;100.00
44934;BME280;30667;43.614;1.442;2023-03-12T11:48:24;100364.50;;;15.16;100.00
44934;BME280;30667;43.614;1.442;2023-03-12T11:56:29;100361.88;;;15.25;100.00
44934;BME280;30667;43.614;1.442;2023-03-12T12:09:46;100369.16;;;15.30;100.00
44934;BME280;30667;43.614;1.442;2023-03-12T12:20:41;100351.19;;;15.42;100.00
44934;BME280;30667;43.614;1.442;2023-03-12T12:23:17;100351.91;;;15.48;100.00
44934;BME280;30667;43.614;1.442;2023-03-12T12:26:00;100349.19;;;15.62;100.00
44934;BME280;30667;43.614;1.442;2023-03-12T12:33:48;100336.47;;;15.57;100.00
44934;BME280;30667;43.614;1.442;2023-03-12T12:36:18;100332.63;;;15.58;100.00
44934;BME280;30667;43.614;1.442;2023-03-12T12:39:10;100331.31;;;15.56;100.00
44934;BME280;30667;43.614;1.442;2023-03-12T12:41:41;100329.28;;;15.61;100.00
44934;BME280;30667;43.614;1.442;2023-03-12T12:44:30;100330.09;;;15.76;100.00
44934;BME280;30667;43.614;1.442;2023-03-12T12:47:04;100331.72;;;15.63;100.00
44934;BME280;30667;43.614;1.442;2023-03-12T12:49:48;100322.00;;;15.71;100.00
44934;BME280;30667;43.614;1.442;2023-03-12T12:52:18;100321.22;;;15.70;100.00
44934;BME280;30667;43.614;1.442;2023-03-12T13:02:38;100307.56;;;15.70;100.00
44934;BME280;30667;43.614;1.442;2023-03-12T13:05:21;100311.59;;;15.73;100.00
44934;BME280;30667;43.614;1.442;2023-03-12T13:07:49;100306.56;;;15.66;100.00
44934;BME280;30667;43.614;1.442;2023-03-12T13:13:25;100296.66;;;15.84;100.00
44934;BME280;30667;43.614;1.442;2023-03-12T13:19:41;100281.16;;;16.07;100.00
44934;BME280;30667;43.614;1.442;2023-03-12T13:24:34;100283.56;;;16.09;100.00
44934;BME280;30667;43.614;1.442;2023-03-12T13:27:23;100284.41;;;15.95;100.00
44934;BME280;30667;43.614;1.442;2023-03-12T13:29:49;100273.00;;;15.93;100.00
44934;BME280;30667;43.614;1.442;2023-03-12T13:34:59;100273.53;;;15.82;100.00
44934;BME280;30667;43.614;1.442;2023-03-12T13:45:32;100271.16;;;16.03;100.00
44934;BME280;30667;43.614;1.442;2023-03-12T13:48:01;100269.63;;;16.10;100.00
44934;BME280;30667;43.614;1.442;2023-03-12T13:50:28;100260.94;;;16.08;100.00
44934;BME280;30667;43.614;1.442;2023-03-12T13:55:29;100260.44;;;16.29;100.00
44934;BME280;30667;43.614;1.442;2023-03-12T13:58:00;100263.22;;;16.38;100.00
44934;BME280;30667;43.614;1.442;2023-03-12T14:00:38;100266.09;;;16.32;100.00
44934;BME280;30667;43.614;1.442;2023-03-12T14:03:15;100269.38;;;16.43;100.00
44934;BME280;30667;43.614;1.442;2023-03-12T14:05:59;100255.91;;;16.47;100.00
44934;BME280;30667;43.614;1.442;2023-03-12T14:11:22;100252.50;;;16.41;100.00
44934;BME280;30667;43.614;1.442;2023-03-12T14:18:45;100243.88;;;16.25;100.00
44934;BME280;30667;43.614;1.442;2023-03-12T14:21:16;100236.69;;;16.29;100.00
44934;BME280;30667;43.614;1.442;2023-03-12T14:23:49;100241.22;;;16.34;100.00
44934;BME280;30667;43.614;1.442;2023-03-12T14:26:24;100241.88;;;16.40;100.00